Time;durP1;ratioP1;P1;durP2;ratioP2;P2;SDS_P1;SDS_P2;PMS_P1;PMS_P2;Temp;Humidity;BMP_temperature;BMP_pressure;BME280_temperature;BME280_humidity;BME280_pressure;Samples;Min_cycle;Max_cycle;Signal;HPM_P1;HPM_P2
2023/05/02 00:00:20;;;;;;;18.88;6.82;;;10.40;99.90;;;;;;7399954;19;19921;-79
2023/05/02 00:02:51;;;;;;;16.73;6.90;;;10.40;99.90;;;;;;7401235;19;19935;-79
2023/05/02 00:05:20;;;;;;;14.40;5.80;;;10.40;99.90;;;;;;7399508;19;19934;-81
2023/05/02 00:07:50;;;;;;;11.70;5.97;;;10.50;99.90;;;;;;7402254;19;20240;-81
2023/05/02 00:10:19;;;;;;;9.35;4.72;;;10.50;99.90;;;;;;7397563;19;20053;-82
2023/05/02 00:12:48;;;;;;;10.55;4.43;;;10.40;99.90;;;;;;7399886;19;20034;-81
2023/05/02 00:15:17;;;;;;;9.65;4.45;;;10.40;99.90;;;;;;7400713;19;19942;-82
2023/05/02 00:17:46;;;;;;;7.35;3.50;;;10.50;99.90;;;;;;7400799;19;20644;-82
2023/05/02 00:20:17;;;;;;;5.40;3.15;;;10.50;99.90;;;;;;7400414;19;19918;-82
2023/05/02 00:22:46;;;;;;;4.20;2.72;;;10.40;99.90;;;;;;7402798;19;19991;-80
2023/05/02 00:25:16;;;;;;;7.43;3.25;;;10.40;99.90;;;;;;7401642;19;19920;-81
2023/05/02 00:27:46;;;;;;;6.32;2.53;;;10.70;99.90;;;;;;7404886;19;20272;-82
2023/05/02 00:30:27;;;;;;;6.35;2.55;;;10.30;99.90;;;;;;7401775;19;20240;-81
2023/05/02 00:32:56;;;;;;;5.40;2.92;;;10.20;99.90;;;;;;7400450;19;20290;-81
2023/05/02 00:35:27;;;;;;;5.95;2.92;;;10.10;99.90;;;;;;7400815;19;19914;-82
2023/05/02 00:37:56;;;;;;;4.53;3.00;;;10.00;99.90;;;;;;7399998;19;19918;-81
2023/05/02 00:40:25;;;;;;;4.45;2.85;;;10.00;99.90;;;;;;7403776;19;19936;-82
2023/05/02 00:42:54;;;;;;;6.65;3.28;;;10.10;99.90;;;;;;7399775;19;19923;-81
2023/05/02 00:45:23;;;;;;;5.25;2.70;;;10.20;99.90;;;;;;7398832;19;19927;-81
2023/05/02 00:47:54;;;;;;;5.75;2.88;;;10.20;99.90;;;;;;7400479;19;19985;-81
2023/05/02 00:50:27;;;;;;;6.32;3.50;;;10.20;99.90;;;;;;7399899;19;19922;-81
2023/05/02 00:52:57;;;;;;;3.35;2.40;;;10.30;99.90;;;;;;7400204;19;19925;-82
2023/05/02 00:55:26;;;;;;;6.22;3.00;;;10.10;99.90;;;;;;7400005;19;20336;-82
2023/05/02 00:57:55;;;;;;;4.90;3.00;;;10.20;99.90;;;;;;7398369;19;20364;-81
2023/05/02 01:00:28;;;;;;;6.25;2.67;;;10.30;99.90;;;;;;7398883;19;19939;-81
2023/05/02 01:03:08;;;;;;;6.13;2.70;;;10.40;99.90;;;;;;7399967;19;19918;-82
2023/05/02 01:05:50;;;;;;;5.47;3.08;;;10.20;99.90;;;;;;7398172;19;19942;-82
2023/05/02 01:08:27;;;;;;;4.97;2.78;;;10.20;99.90;;;;;;7399477;19;19986;-79
2023/05/02 01:11:05;;;;;;;4.60;2.65;;;10.20;99.90;;;;;;7400213;19;19930;-81
2023/05/02 01:13:45;;;;;;;4.18;2.90;;;10.30;99.90;;;;;;7399380;19;19922;-82
2023/05/02 01:16:17;;;;;;;8.85;3.17;;;10.20;99.90;;;;;;7401121;19;19926;-82
2023/05/02 01:18:51;;;;;;;7.72;3.25;;;10.40;99.90;;;;;;7397519;19;20276;-82
2023/05/02 01:21:24;;;;;;;6.13;3.25;;;10.30;99.90;;;;;;7400512;19;19923;-81
2023/05/02 01:24:03;;;;;;;4.18;3.13;;;10.30;99.90;;;;;;7396804;19;19923;-82
2023/05/02 01:26:38;;;;;;;6.43;2.47;;;10.20;99.90;;;;;;7401567;19;20606;-81
2023/05/02 01:29:13;;;;;;;9.07;3.25;;;10.30;99.90;;;;;;7400211;19;20253;-81
2023/05/02 01:31:44;;;;;;;6.72;2.75;;;10.20;99.90;;;;;;7399845;19;19915;-81
2023/05/02 01:34:14;;;;;;;7.07;2.83;;;10.30;99.90;;;;;;7401714;19;20349;-82
2023/05/02 01:36:48;;;;;;;9.10;2.97;;;10.20;99.90;;;;;;7402110;19;19923;-82
2023/05/02 01:39:22;;;;;;;10.48;3.13;;;10.10;99.90;;;;;;7401878;19;19963;-82
2023/05/02 01:41:53;;;;;;;9.10;3.33;;;10.00;99.90;;;;;;7400990;19;19925;-82
2023/05/02 01:44:27;;;;;;;9.05;2.65;;;10.00;99.90;;;;;;7400680;19;19911;-81
2023/05/02 01:46:57;;;;;;;13.02;2.55;;;8.20;99.90;;;;;;7401342;19;20320;-82
2023/05/02 01:49:28;;;;;;;11.63;2.70;;;10.00;99.90;;;;;;7400422;19;20387;-81
2023/05/02 01:52:00;;;;;;;9.32;3.05;;;9.90;99.90;;;;;;7405776;19;20495;-81
2023/05/02 01:54:30;;;;;;;11.30;2.70;;;10.00;99.90;;;;;;7405349;19;19939;-82
2023/05/02 01:57:02;;;;;;;11.52;2.47;;;10.00;99.90;;;;;;7406897;19;19926;-82
2023/05/02 01:59:35;;;;;;;9.73;2.70;;;10.10;99.90;;;;;;7405841;19;20346;-81
2023/05/02 02:02:13;;;;;;;9.63;2.50;;;10.00;99.90;;;;;;7406180;19;19958;-81
2023/05/02 02:04:43;;;;;;;12.32;2.80;;;9.80;99.90;;;;;;7404265;19;19964;-81
2023/05/02 02:07:15;;;;;;;9.52;2.25;;;9.90;99.90;;;;;;7406020;19;19937;-82
2023/05/02 02:09:44;;;;;;;7.70;2.13;;;9.80;99.90;;;;;;7407263;19;19949;-82
2023/05/02 02:12:17;;;;;;;4.53;2.20;;;9.80;99.90;;;;;;7406298;19;19929;-80
2023/05/02 02:14:56;;;;;;;12.32;2.45;;;9.80;99.90;;;;;;7403212;19;20264;-81
2023/05/02 02:17:29;;;;;;;9.85;2.17;;;9.70;99.90;;;;;;7403995;19;19926;-82
2023/05/02 02:20:02;;;;;;;10.30;2.17;;;9.80;99.90;;;;;;7405043;19;19945;-82
2023/05/02 02:22:35;;;;;;;6.13;1.75;;;9.70;99.90;;;;;;7404988;19;19922;-81
2023/05/02 02:25:05;;;;;;;10.85;2.83;;;9.70;99.90;;;;;;7403249;19;19998;-82
2023/05/02 02:27:34;;;;;;;7.10;3.50;;;9.80;99.90;;;;;;7403055;19;19934;-82
2023/05/02 02:30:07;;;;;;;8.95;2.65;;;9.60;99.90;;;;;;7403090;19;19919;-82
2023/05/02 02:32:37;;;;;;;7.50;2.30;;;9.50;99.90;;;;;;7403396;19;20288;-82
2023/05/02 02:35:07;;;;;;;12.77;3.00;;;9.70;99.90;;;;;;7403715;19;19946;-82
2023/05/02 02:37:42;;;;;;;12.93;2.42;;;9.60;99.90;;;;;;7404080;19;19914;-83
2023/05/02 02:40:18;;;;;;;12.00;4.40;;;9.50;99.90;;;;;;7403155;19;20364;-82
2023/05/02 02:42:56;;;;;;;12.13;3.05;;;9.40;99.90;;;;;;7403191;19;20371;-82
2023/05/02 02:45:37;;;;;;;12.35;3.63;;;9.30;99.90;;;;;;7402903;19;19918;-81
2023/05/02 02:48:17;;;;;;;15.00;2.97;;;9.30;99.90;;;;;;7405366;19;19926;-81
2023/05/02 02:50:56;;;;;;;11.57;2.10;;;9.20;99.90;;;;;;7404128;19;20529;-80
2023/05/02 02:53:34;;;;;;;14.82;2.75;;;9.30;99.90;;;;;;7401643;19;20345;-81
2023/05/02 02:56:08;;;;;;;10.63;2.50;;;8.00;99.90;;;;;;7405040;19;19915;-81
2023/05/02 02:58:45;;;;;;;13.88;2.33;;;9.10;99.90;;;;;;7401761;19;19939;-81
2023/05/02 03:01:20;;;;;;;10.65;2.60;;;9.20;99.90;;;;;;7398449;19;20428;-82
2023/05/02 03:03:51;;;;;;;9.60;2.65;;;9.00;99.90;;;;;;7401198;19;20352;-81
2023/05/02 03:06:20;;;;;;;14.10;2.42;;;9.10;99.90;;;;;;7401138;19;19936;-81
2023/05/02 03:08:49;;;;;;;9.73;2.47;;;9.00;99.90;;;;;;7400710;19;19914;-81
2023/05/02 03:11:18;;;;;;;12.73;2.25;;;8.90;99.90;;;;;;7402539;19;19923;-81
2023/05/02 03:13:47;;;;;;;11.05;2.13;;;9.00;99.90;;;;;;7403133;19;19941;-81
2023/05/02 03:16:38;;;;;;;9.98;2.25;;;9.00;99.90;;;;;;7400352;19;19926;-81
2023/05/02 03:19:08;;;;;;;7.60;2.58;;;8.90;99.90;;;;;;7400804;19;19978;-81
2023/05/02 03:21:37;;;;;;;16.08;2.38;;;9.00;99.90;;;;;;7404530;19;19922;-82
2023/05/02 03:24:07;;;;;;;9.50;1.83;;;8.80;99.90;;;;;;7401811;19;20358;-82
2023/05/02 03:26:36;;;;;;;13.00;2.45;;;8.90;99.90;;;;;;7400223;19;19932;-82
2023/05/02 03:29:05;;;;;;;7.95;1.98;;;8.90;99.90;;;;;;7401427;19;20345;-82
2023/05/02 03:31:47;;;;;;;14.73;2.47;;;8.80;99.90;;;;;;7402905;19;19926;-82
2023/05/02 03:34:18;;;;;;;10.02;2.20;;;8.80;99.90;;;;;;7403613;19;19918;-81
2023/05/02 03:36:47;;;;;;;9.43;2.45;;;8.80;99.90;;;;;;7400293;19;19929;-81
2023/05/02 03:39:16;;;;;;;6.22;1.80;;;8.60;99.90;;;;;;7404920;19;19930;-80
2023/05/02 03:41:45;;;;;;;10.45;2.30;;;8.60;99.90;;;;;;7403522;19;19986;-81
2023/05/02 03:44:14;;;;;;;9.32;2.45;;;8.70;99.90;;;;;;7404174;19;19922;-80
2023/05/02 03:46:51;;;;;;;12.70;2.40;;;8.60;99.90;;;;;;7403485;19;19947;-81
2023/05/02 03:49:21;;;;;;;17.25;2.58;;;8.60;99.90;;;;;;7401624;19;19915;-81
2023/05/02 03:51:50;;;;;;;7.65;2.05;;;8.50;99.90;;;;;;7402801;19;20279;-81
2023/05/02 03:54:19;;;;;;;10.27;2.47;;;8.50;99.90;;;;;;7402813;19;19914;-81
2023/05/02 03:56:48;;;;;;;13.15;2.78;;;8.60;99.90;;;;;;7401117;19;19926;-81
2023/05/02 03:59:17;;;;;;;10.55;2.20;;;8.50;99.90;;;;;;7400914;19;19919;-81
2023/05/02 04:01:50;;;;;;;5.28;1.75;;;8.60;99.90;;;;;;7401659;19;19997;-81
2023/05/02 04:04:21;;;;;;;;;;;8.50;99.90;;;;;;7403979;19;19922;-81
2023/05/02 04:06:50;;;;;;;7.90;1.65;;;8.50;99.90;;;;;;7400131;19;19918;-80
2023/05/02 04:09:23;;;;;;;7.35;2.10;;;7.80;99.90;;;;;;7400790;19;19922;-80
2023/05/02 04:11:53;;;;;;;10.38;1.60;;;8.40;99.90;;;;;;7402288;19;19939;-82
2023/05/02 04:14:22;;;;;;;12.82;2.17;;;8.40;99.90;;;;;;7401115;19;19926;-81
2023/05/02 04:16:51;;;;;;;8.50;1.88;;;8.50;99.90;;;;;;7398740;19;20315;-81
2023/05/02 04:19:23;;;;;;;9.25;1.80;;;8.40;99.90;;;;;;7401499;19;19930;-80
2023/05/02 04:21:52;;;;;;;9.35;1.88;;;8.50;99.90;;;;;;7402755;19;19925;-80
2023/05/02 04:24:21;;;;;;;7.72;2.50;;;8.50;99.90;;;;;;7399926;19;19918;-81
2023/05/02 04:26:49;;;;;;;7.05;1.65;;;8.50;99.90;;;;;;7399206;19;19938;-81
2023/05/02 04:29:18;;;;;;;10.38;1.70;;;8.50;99.90;;;;;;7401490;19;19922;-80
2023/05/02 04:31:49;;;;;;;4.60;1.60;;;8.40;99.90;;;;;;7401731;19;19927;-81
2023/05/02 04:34:18;;;;;;;6.75;1.20;;;8.50;99.90;;;;;;7402127;19;19923;-81
2023/05/02 04:36:50;;;;;;;3.88;1.02;;;8.20;99.90;;;;;;7402746;19;19918;-80
2023/05/02 04:39:39;;;;;;;5.45;1.13;;;8.60;99.90;;;;;;7398965;19;19942;-80
2023/05/02 04:42:28;;;;;;;9.98;1.77;;;9.60;99.90;;;;;;7399191;19;19923;-80
2023/05/02 04:45:16;;;;;;;4.20;1.20;;;8.40;99.90;;;;;;7398502;19;19918;-80
2023/05/02 04:48:06;;;;;;;4.25;1.42;;;8.80;99.90;;;;;;7398086;19;19922;-81
2023/05/02 04:50:55;;;;;;;6.10;1.15;;;8.40;99.90;;;;;;7392646;19;19922;-81
2023/05/02 04:53:46;;;;;;;2.90;1.10;;;8.40;99.90;;;;;;7397892;19;19933;-80
2023/05/02 04:56:16;;;;;;;2.25;0.90;;;8.30;99.90;;;;;;7399704;19;20311;-79
2023/05/02 04:58:45;;;;;;;4.22;1.00;;;8.20;99.90;;;;;;7397259;19;19933;-81
2023/05/02 05:01:14;;;;;;;2.30;0.80;;;8.10;99.90;;;;;;7396612;19;19923;-80
2023/05/02 05:03:43;;;;;;;8.57;1.40;;;8.10;99.90;;;;;;7399953;19;19930;-80
2023/05/02 05:06:12;;;;;;;2.67;1.13;;;8.20;99.90;;;;;;7397849;19;19974;-81
2023/05/02 05:08:41;;;;;;;4.15;1.23;;;8.20;99.90;;;;;;7398809;19;20524;-82
2023/05/02 05:11:13;;;;;;;4.47;1.15;;;8.60;99.90;;;;;;7398551;19;19918;-79
2023/05/02 05:13:42;;;;;;;8.00;1.45;;;8.30;99.90;;;;;;7398691;19;20273;-82
2023/05/02 05:16:11;;;;;;;9.30;2.03;;;8.30;99.90;;;;;;7399126;19;19933;-80
2023/05/02 05:18:41;;;;;;;4.50;1.70;;;8.90;99.90;;;;;;7398129;19;19910;-81
2023/05/02 05:21:11;;;;;;;11.52;1.92;;;8.30;99.90;;;;;;7399259;19;19918;-81
2023/05/02 05:23:44;;;;;;;6.82;1.73;;;8.30;99.90;;;;;;7399951;19;19935;-82
2023/05/02 05:26:17;;;;;;;10.77;2.42;;;8.10;99.90;;;;;;7403696;19;19962;-82
2023/05/02 05:28:46;;;;;;;7.85;1.77;;;8.20;99.90;;;;;;7404890;19;19983;-82
2023/05/02 05:31:17;;;;;;;6.32;1.35;;;8.10;99.90;;;;;;7404439;19;19922;-82
2023/05/02 05:33:46;;;;;;;4.43;1.38;;;8.20;99.90;;;;;;7405740;19;19961;-80
2023/05/02 05:36:16;;;;;;;9.68;1.90;;;8.20;99.90;;;;;;7402154;19;19922;-81
2023/05/02 05:38:45;;;;;;;5.78;1.70;;;9.20;99.90;;;;;;7402666;19;19954;-80
2023/05/02 05:41:17;;;;;;;5.22;1.40;;;8.10;99.90;;;;;;7406460;19;19940;-83
2023/05/02 05:43:45;;;;;;;5.07;2.67;;;8.00;99.90;;;;;;7403455;19;20332;-82
2023/05/02 05:46:14;;;;;;;7.40;1.58;;;7.90;99.90;;;;;;7405252;19;19929;-82
2023/05/02 05:48:43;;;;;;;6.22;1.73;;;7.90;99.90;;;;;;7404303;19;19937;-81
2023/05/02 05:51:12;;;;;;;7.57;3.15;;;7.90;99.90;;;;;;7406439;19;19925;-82
2023/05/02 05:53:41;;;;;;;9.88;4.03;;;7.60;99.90;;;;;;7405588;19;20245;-83
2023/05/02 05:56:11;;;;;;;9.88;4.40;;;7.80;99.90;;;;;;7405725;19;19918;-83
2023/05/02 05:58:43;;;;;;;12.85;4.72;;;7.80;99.90;;;;;;7404998;19;20341;-81
2023/05/02 06:01:12;;;;;;;9.05;2.90;;;7.90;99.90;;;;;;7406998;19;20275;-82
2023/05/02 06:03:41;;;;;;;6.50;2.33;;;7.80;99.90;;;;;;7406024;19;19922;-83
2023/05/02 06:06:10;;;;;;;4.80;2.60;;;7.90;99.90;;;;;;7403438;19;19925;-82
2023/05/02 06:08:39;;;;;;;6.95;2.35;;;7.70;99.90;;;;;;7406319;19;19933;-81
2023/05/02 06:11:11;;;;;;;7.78;2.35;;;7.90;99.90;;;;;;7402315;19;19926;-82
2023/05/02 06:13:43;;;;;;;6.18;3.10;;;7.60;99.90;;;;;;7404468;19;19915;-81
2023/05/02 06:16:12;;;;;;;10.88;2.83;;;7.90;99.90;;;;;;7405468;19;19923;-82
2023/05/02 06:18:40;;;;;;;8.68;1.83;;;7.90;99.90;;;;;;7403474;19;19922;-83
2023/05/02 06:21:09;;;;;;;6.45;3.00;;;7.50;99.90;;;;;;7404888;19;19919;-80
2023/05/02 06:23:39;;;;;;;8.13;1.80;;;7.60;99.90;;;;;;7402839;19;19954;-84
2023/05/02 06:26:09;;;;;;;9.65;2.22;;;9.20;99.90;;;;;;7404542;19;19933;-81
2023/05/02 06:28:37;;;;;;;5.43;2.50;;;8.20;99.90;;;;;;7401401;19;19919;-82
2023/05/02 06:31:09;;;;;;;4.55;1.50;;;7.80;99.90;;;;;;7400436;19;19926;-83
2023/05/02 06:33:38;;;;;;;7.30;1.45;;;7.70;99.90;;;;;;7399927;19;19930;-82
2023/05/02 06:36:08;;;;;;;18.05;2.40;;;7.90;99.90;;;;;;7400561;19;19983;-83
2023/05/02 06:38:36;;;;;;;10.15;1.90;;;7.90;99.90;;;;;;7399541;19;20333;-82
2023/05/02 06:41:05;;;;;;;6.57;1.98;;;8.00;99.90;;;;;;7402649;19;19969;-84
2023/05/02 06:43:34;;;;;;;5.57;1.40;;;7.80;99.90;;;;;;7405989;19;19919;-85
2023/05/02 06:46:04;;;;;;;9.15;1.95;;;8.10;99.90;;;;;;7404603;19;19929;-85
2023/05/02 06:48:37;;;;;;;10.95;2.22;;;8.10;99.90;;;;;;7405307;19;19930;-85
2023/05/02 06:51:06;;;;;;;5.15;2.15;;;8.00;99.90;;;;;;7407049;19;19939;-85
2023/05/02 06:53:35;;;;;;;4.43;1.83;;;8.10;99.90;;;;;;7409060;19;19926;-82
2023/05/02 06:56:05;;;;;;;2.35;1.58;;;7.90;99.90;;;;;;7403631;19;20264;-82
2023/05/02 06:58:34;;;;;;;8.30;1.60;;;8.10;99.90;;;;;;7401801;19;19926;-81
2023/05/02 07:01:03;;;;;;;15.27;1.90;;;8.00;99.90;;;;;;7398606;19;19925;-82
2023/05/02 07:03:35;;;;;;;8.75;1.85;;;8.00;99.90;;;;;;7402298;19;19918;-82
2023/05/02 07:06:04;;;;;;;5.35;2.00;;;8.00;99.90;;;;;;7402085;19;19925;-82
2023/05/02 07:08:33;;;;;;;7.07;2.55;;;7.80;99.90;;;;;;7403056;19;19949;-83
2023/05/02 07:11:02;;;;;;;6.75;2.45;;;7.90;99.90;;;;;;7400879;19;20253;-82
2023/05/02 07:13:30;;;;;;;8.63;2.28;;;7.80;99.90;;;;;;7403825;19;19933;-82
2023/05/02 07:15:59;;;;;;;9.73;2.33;;;7.80;99.90;;;;;;7402567;19;20566;-82
2023/05/02 07:18:28;;;;;;;9.00;2.03;;;8.00;99.90;;;;;;7402656;19;20391;-83
2023/05/02 07:21:00;;;;;;;6.05;1.92;;;7.80;99.90;;;;;;7404859;19;19923;-82
2023/05/02 07:23:29;;;;;;;8.63;2.70;;;7.80;99.90;;;;;;7404520;19;19961;-83
2023/05/02 07:25:58;;;;;;;8.85;4.22;;;8.00;99.90;;;;;;7403549;19;19933;-82
2023/05/02 07:28:27;;;;;;;7.57;2.40;;;8.20;99.90;;;;;;7401608;19;19919;-82
2023/05/02 07:30:55;;;;;;;3.63;1.70;;;8.10;99.90;;;;;;7400155;19;19987;-82
2023/05/02 07:33:24;;;;;;;6.10;1.70;;;8.30;99.90;;;;;;7402803;19;19915;-82
2023/05/02 07:35:53;;;;;;;7.85;2.17;;;8.20;99.90;;;;;;7400563;19;19949;-82
2023/05/02 07:38:25;;;;;;;7.10;2.20;;;8.40;99.90;;;;;;7401519;19;19926;-82
2023/05/02 07:40:54;;;;;;;7.80;2.65;;;8.30;99.90;;;;;;7400203;19;19938;-82
2023/05/02 07:43:22;;;;;;;4.68;1.92;;;9.10;99.90;;;;;;7402528;19;19986;-82
2023/05/02 07:45:51;;;;;;;5.43;1.50;;;8.40;99.90;;;;;;7401415;19;20421;-82
2023/05/02 07:48:20;;;;;;;10.32;1.75;;;8.30;99.90;;;;;;7399317;19;19918;-82
2023/05/02 07:50:49;;;;;;;4.80;1.95;;;8.50;99.90;;;;;;7398137;19;19918;-82
2023/05/02 07:53:18;;;;;;;5.82;2.63;;;8.70;99.90;;;;;;7398458;19;19970;-82
2023/05/02 07:55:49;;;;;;;3.90;1.55;;;8.60;99.90;;;;;;7399540;19;19914;-83
2023/05/02 07:58:18;;;;;;;6.35;1.90;;;8.70;99.90;;;;;;7401519;19;19923;-82
2023/05/02 08:00:47;;;;;;;3.72;1.98;;;8.70;99.90;;;;;;7400934;19;20284;-82
2023/05/02 08:03:17;;;;;;;6.68;1.40;;;8.80;99.90;;;;;;7400902;19;19925;-82
2023/05/02 08:05:46;;;;;;;3.83;1.60;;;9.00;99.90;;;;;;7401163;19;19926;-82
2023/05/02 08:08:15;;;;;;;7.40;1.80;;;9.10;99.90;;;;;;7398692;19;19922;-83
2023/05/02 08:10:45;;;;;;;7.93;1.80;;;9.20;99.90;;;;;;7401461;19;19938;-81
2023/05/02 08:13:16;;;;;;;7.75;1.73;;;9.20;99.90;;;;;;7401157;19;19919;-82
2023/05/02 08:15:45;;;;;;;5.38;1.90;;;9.40;99.90;;;;;;7397850;19;19918;-82
2023/05/02 08:18:14;;;;;;;5.75;1.27;;;9.50;99.90;;;;;;7398924;19;20271;-83
2023/05/02 08:20:44;;;;;;;4.88;1.42;;;9.40;99.90;;;;;;7400351;19;19942;-82
2023/05/02 08:23:13;;;;;;;5.32;1.48;;;9.30;99.90;;;;;;7398608;19;19918;-82
2023/05/02 08:25:42;;;;;;;6.80;1.50;;;9.10;99.90;;;;;;7400092;19;19940;-82
2023/05/02 08:28:12;;;;;;;3.60;1.25;;;9.10;99.90;;;;;;7398970;19;19915;-82
2023/05/02 08:30:44;;;;;;;3.75;1.15;;;9.10;99.90;;;;;;7401970;19;19930;-82
2023/05/02 08:33:12;;;;;;;4.43;1.10;;;9.20;99.90;;;;;;7400977;19;19922;-82
2023/05/02 08:35:42;;;;;;;2.38;1.00;;;9.10;99.90;;;;;;7400511;19;19929;-82
2023/05/02 08:38:11;;;;;;;2.45;0.90;;;9.20;99.90;;;;;;7400579;19;19922;-81
2023/05/02 08:40:40;;;;;;;4.47;1.10;;;9.20;99.90;;;;;;7400003;19;20257;-82
2023/05/02 08:43:09;;;;;;;3.90;0.98;;;9.30;99.90;;;;;;7397867;19;20299;-81
2023/05/02 08:45:45;;;;;;;3.67;0.93;;;9.50;99.90;;;;;;7397849;19;19985;-81
2023/05/02 08:48:16;;;;;;;3.45;1.02;;;9.60;99.90;;;;;;7399217;19;19931;-81
2023/05/02 08:50:47;;;;;;;4.35;1.17;;;9.70;99.90;;;;;;7398487;19;19926;-81
2023/05/02 08:53:16;;;;;;;5.63;0.80;;;9.70;99.90;;;;;;7399519;19;19931;-81
2023/05/02 08:55:45;;;;;;;1.90;0.70;;;9.60;99.90;;;;;;7397620;19;19923;-80
2023/05/02 08:58:13;;;;;;;3.22;0.70;;;9.60;99.90;;;;;;7398722;19;19934;-81
2023/05/02 09:00:48;;;;;;;3.33;0.85;;;9.60;99.90;;;;;;7404549;19;20418;-81
2023/05/02 09:03:25;;;;;;;4.60;1.20;;;9.80;99.90;;;;;;7406645;19;19929;-82
2023/05/02 09:05:55;;;;;;;4.03;0.68;;;9.70;99.90;;;;;;7402392;19;20656;-82
2023/05/02 09:08:25;;;;;;;3.80;1.05;;;9.70;99.90;;;;;;7401430;19;20236;-82
2023/05/02 09:10:55;;;;;;;4.75;1.00;;;9.80;99.90;;;;;;7405948;19;19919;-83
2023/05/02 09:13:34;;;;;;;3.95;1.27;;;9.50;99.90;;;;;;7407968;19;19970;-82
2023/05/02 09:16:07;;;;;;;1.45;0.70;;;9.30;99.90;;;;;;7403756;19;19970;-81
2023/05/02 09:18:37;;;;;;;4.45;1.10;;;9.40;99.90;;;;;;7404754;19;19918;-83
2023/05/02 09:21:08;;;;;;;4.40;0.80;;;9.30;99.90;;;;;;7404183;19;20352;-83
2023/05/02 09:23:38;;;;;;;2.38;0.90;;;9.30;99.90;;;;;;7400931;19;19934;-81
2023/05/02 09:26:19;;;;;;;3.92;1.30;;;9.20;99.90;;;;;;7402107;19;20220;-81
2023/05/02 09:28:49;;;;;;;4.35;1.10;;;9.10;99.90;;;;;;7398415;19;19926;-83
2023/05/02 09:31:24;;;;;;;4.60;1.17;;;9.10;99.90;;;;;;7401234;19;19918;-81
2023/05/02 09:33:54;;;;;;;4.70;1.40;;;9.10;99.90;;;;;;7404928;19;19942;-81
2023/05/02 09:36:23;;;;;;;2.75;0.85;;;9.30;99.90;;;;;;7405290;19;19946;-83
2023/05/02 09:38:52;;;;;;;3.20;1.02;;;9.50;99.90;;;;;;7426037;19;19929;-81
2023/05/02 09:41:22;;;;;;;3.17;0.95;;;9.30;99.90;;;;;;7414922;19;19922;-82
2023/05/02 09:43:58;;;;;;;1.02;0.70;;;9.50;99.90;;;;;;7404027;19;19949;-82
2023/05/02 09:46:42;;;;;;;4.28;1.10;;;9.70;99.90;;;;;;7405310;19;19922;-82
2023/05/02 09:49:13;;;;;;;2.85;1.38;;;9.70;99.90;;;;;;7401650;19;19930;-82
2023/05/02 09:51:42;;;;;;;2.88;1.20;;;10.10;99.90;;;;;;7401948;19;19922;-82
2023/05/02 09:54:11;;;;;;;2.95;1.00;;;10.20;99.90;;;;;;7400708;19;19919;-82
2023/05/02 09:56:55;;;;;;;4.82;0.95;;;10.10;99.90;;;;;;7396500;19;19922;-81
2023/05/02 09:59:24;;;;;;;2.22;0.65;;;10.30;99.90;;;;;;7400912;19;19988;-76
2023/05/02 10:02:01;;;;;;;2.40;0.77;;;10.30;99.90;;;;;;7406791;19;20051;-77
2023/05/02 10:04:33;;;;;;;1.92;0.55;;;10.30;99.90;;;;;;7407816;19;19945;-77
2023/05/02 10:07:06;;;;;;;2.70;0.60;;;10.10;99.90;;;;;;7402770;19;19919;-77
2023/05/02 10:09:38;;;;;;;5.18;1.33;;;10.10;99.90;;;;;;7405247;19;19918;-75
2023/05/02 10:12:07;;;;;;;3.50;1.83;;;10.10;99.90;;;;;;7400863;19;19926;-75
2023/05/02 10:14:41;;;;;;;5.50;0.80;;;10.10;99.90;;;;;;7404946;19;20007;-75
2023/05/02 10:17:17;;;;;;;3.55;1.08;;;10.10;99.90;;;;;;7404123;19;20008;-76
2023/05/02 10:19:55;;;;;;;3.67;1.20;;;9.90;99.90;;;;;;7404666;19;19922;-76
2023/05/02 10:22:24;;;;;;;2.92;0.70;;;9.90;99.90;;;;;;7404805;19;19922;-76
2023/05/02 10:24:55;;;;;;;6.82;1.35;;;9.90;99.90;;;;;;7404312;19;20304;-76
2023/05/02 10:27:24;;;;;;;4.30;1.38;;;9.70;99.90;;;;;;7404139;19;19925;-74
2023/05/02 10:29:53;;;;;;;1.90;1.00;;;9.80;99.90;;;;;;7403570;19;19995;-76
2023/05/02 10:32:29;;;;;;;3.35;1.10;;;9.70;99.90;;;;;;7401652;19;19918;-76
2023/05/02 10:34:59;;;;;;;2.45;0.98;;;9.80;99.90;;;;;;7404892;19;20415;-76
2023/05/02 10:37:29;;;;;;;3.17;0.98;;;9.70;99.90;;;;;;7402082;19;19918;-82
2023/05/02 10:39:58;;;;;;;2.65;0.80;;;9.90;99.90;;;;;;7401773;19;20270;-75
2023/05/02 10:42:28;;;;;;;4.45;0.80;;;9.80;99.90;;;;;;7402126;19;20527;-76
2023/05/02 10:44:58;;;;;;;2.75;0.70;;;9.80;99.90;;;;;;7404833;19;20379;-76
2023/05/02 10:47:30;;;;;;;1.85;0.65;;;10.10;99.90;;;;;;7402961;19;19922;-76
2023/05/02 10:50:00;;;;;;;2.80;0.93;;;10.10;99.90;;;;;;7401681;19;19933;-76
2023/05/02 10:52:32;;;;;;;2.78;0.80;;;10.30;99.90;;;;;;7401553;19;19934;-75
2023/05/02 10:55:18;;;;;;;2.45;0.95;;;10.70;99.90;;;;;;7402949;19;19918;-76
2023/05/02 10:58:16;;;;;;;2.45;0.80;;;11.00;99.90;;;;;;7402113;19;20348;-76
2023/05/02 11:00:45;;;;;;;6.38;1.08;;;10.90;99.90;;;;;;7400469;19;19926;-76
2023/05/02 11:03:52;;;;;;;2.58;0.80;;;10.60;99.90;;;;;;7402936;19;20312;-76
2023/05/02 11:06:22;;;;;;;0.98;0.63;;;10.70;99.90;;;;;;7400932;19;19922;-76
2023/05/02 11:08:51;;;;;;;3.85;0.65;;;10.50;99.90;;;;;;7400713;19;19952;-76
2023/05/02 11:11:42;;;;;;;1.85;0.70;;;10.60;99.90;;;;;;7400970;19;19934;-76
2023/05/02 11:14:12;;;;;;;3.05;0.70;;;10.60;99.90;;;;;;7400899;19;19926;-76
2023/05/02 11:17:09;;;;;;;2.83;0.90;;;10.60;99.90;;;;;;7401236;19;19930;-76
2023/05/02 11:20:08;;;;;;;3.78;1.35;;;10.50;99.90;;;;;;7401892;19;19928;-76
2023/05/02 11:22:40;;;;;;;4.70;0.45;;;10.60;99.90;;;;;;7399912;19;20249;-76
2023/05/02 11:25:39;;;;;;;3.20;1.00;;;10.60;99.90;;;;;;7402358;19;20462;-76
2023/05/02 11:28:10;;;;;;;2.90;0.70;;;10.80;99.90;;;;;;7395461;19;19923;-79
2023/05/02 11:30:47;;;;;;;4.32;0.80;;;10.80;99.90;;;;;;7397763;19;19946;-78
2023/05/02 11:33:18;;;;;;;0.80;0.63;;;10.70;99.90;;;;;;7396828;19;19935;-78
2023/05/02 11:35:50;;;;;;;1.50;0.50;;;10.80;99.90;;;;;;7400989;19;19923;-79
2023/05/02 11:38:23;;;;;;;2.17;0.70;;;10.40;99.90;;;;;;7397100;19;19929;-78
2023/05/02 11:40:56;;;;;;;3.70;0.88;;;10.30;99.90;;;;;;7401001;19;20482;-79
2023/05/02 11:43:26;;;;;;;2.47;0.80;;;10.60;99.90;;;;;;7401253;19;19926;-78
2023/05/02 11:45:58;;;;;;;0.80;0.40;;;10.40;99.90;;;;;;7401596;19;19926;-79
2023/05/02 11:48:28;;;;;;;5.07;1.63;;;10.70;99.90;;;;;;7398759;19;19919;-79
2023/05/02 11:51:02;;;;;;;2.22;0.77;;;10.50;99.90;;;;;;7400147;19;19922;-79
2023/05/02 11:53:34;;;;;;;3.35;0.70;;;10.60;99.90;;;;;;7401137;19;19922;-78
2023/05/02 11:56:04;;;;;;;3.30;0.60;;;10.60;99.90;;;;;;7400630;19;19925;-79
2023/05/02 11:58:34;;;;;;;3.65;0.70;;;10.70;99.90;;;;;;7398523;19;19945;-78
2023/05/02 12:01:15;;;;;;;6.22;0.88;;;10.90;99.90;;;;;;7400240;19;19939;-78
2023/05/02 12:03:44;;;;;;;3.33;0.90;;;10.90;99.90;;;;;;7399532;19;19927;-78
2023/05/02 12:06:15;;;;;;;3.22;0.80;;;11.10;99.90;;;;;;7400339;19;19954;-78
2023/05/02 12:08:47;;;;;;;2.75;0.95;;;11.00;99.90;;;;;;7397956;19;19918;-79
2023/05/02 12:11:17;;;;;;;2.70;0.82;;;11.10;99.90;;;;;;7399133;19;19922;-78
2023/05/02 12:13:48;;;;;;;1.85;1.15;;;11.00;99.90;;;;;;7399847;19;19926;-79
2023/05/02 12:16:17;;;;;;;4.45;0.70;;;10.90;99.90;;;;;;7398317;19;19925;-78
2023/05/02 12:18:48;;;;;;;2.25;0.60;;;10.60;99.90;;;;;;7400595;19;19930;-79
2023/05/02 12:21:18;;;;;;;3.70;0.85;;;10.50;99.90;;;;;;7399750;19;19959;-78
2023/05/02 12:23:49;;;;;;;4.65;1.00;;;10.50;99.90;;;;;;7401260;19;19922;-78
2023/05/02 12:26:18;;;;;;;;;;;10.60;99.90;;;;;;7403997;19;19923;-78
2023/05/02 12:28:51;;;;;;;6.18;0.90;;;10.70;99.90;;;;;;7398969;19;20426;-79
2023/05/02 12:31:20;;;;;;;1.58;0.73;;;11.00;99.90;;;;;;7399232;19;19914;-78
2023/05/02 12:33:51;;;;;;;2.28;0.93;;;11.10;99.90;;;;;;7395747;19;19922;-79
2023/05/02 12:36:20;;;;;;;1.40;0.60;;;11.50;99.90;;;;;;7399878;19;19923;-78
2023/05/02 12:38:58;;;;;;;5.50;1.10;;;11.70;99.90;;;;;;7400031;19;19922;-78
2023/05/02 12:41:37;;;;;;;2.67;0.95;;;11.60;99.90;;;;;;7400030;19;20257;-78
2023/05/02 12:44:07;;;;;;;2.05;0.98;;;11.60;99.90;;;;;;7397309;19;19922;-78
2023/05/02 12:46:36;;;;;;;3.45;1.05;;;11.50;99.90;;;;;;7394701;19;19918;-78
2023/05/02 12:49:07;;;;;;;2.03;0.70;;;11.50;99.90;;;;;;7396511;19;19924;-78
2023/05/02 12:51:37;;;;;;;2.20;1.00;;;11.30;99.90;;;;;;7399480;19;19927;-78
2023/05/02 12:54:09;;;;;;;1.65;0.70;;;11.00;99.90;;;;;;7399601;19;20393;-78
2023/05/02 12:56:43;;;;;;;4.00;0.70;;;11.00;99.90;;;;;;7398551;19;19923;-78
2023/05/02 12:59:29;;;;;;;5.07;0.90;;;11.00;99.90;;;;;;7398173;19;19926;-77
2023/05/02 13:01:58;;;;;;;3.08;1.08;;;11.50;99.90;;;;;;7401857;19;19922;-78
2023/05/02 13:04:36;;;;;;;2.30;0.57;;;11.70;99.90;;;;;;7398931;19;19922;-79
2023/05/02 13:07:05;;;;;;;;;;;11.60;99.90;;;;;;7399801;19;19927;-78
2023/05/02 13:09:37;;;;;;;2.20;0.40;;;11.60;99.90;;;;;;7398701;19;19933;-79
2023/05/02 13:12:06;;;;;;;;;;;11.70;99.90;;;;;;7401854;19;19930;-79
2023/05/02 13:14:35;;;;;;;1.70;0.63;;;12.00;99.90;;;;;;7401272;19;19922;-78
2023/05/02 13:17:07;;;;;;;4.18;0.60;;;12.20;99.90;;;;;;7401868;19;20387;-79